Overview Statistics Trail Chart Weather Telemetry Raw packets
 

This is the latest recevied weather packets stored in our database for station/object K4IR. If no packets are shown the sender has not sent any weather packets the latest 10 day(s).

<< 49 50 51 52 53 54 55 >>
Time Temp. Humidity Pressure Rain* Wind** Luminosity Snow
1787872027 26.11° C 91% 1015.3 hPa 0 mm - 6 W/m² -
1787871423 26.11° C 90% 1015.2 hPa 0 mm - 10 W/m² -
1787870818 26.67° C 89% 1015 hPa 0 mm - 17 W/m² -
1787870214 26.67° C 89% 1014.8 hPa 0 mm - 29 W/m² -
1787869613 26.67° C 88% 1015 hPa 0 mm - 50 W/m² -
1787869014 26.67° C 88% 1015.1 hPa 0 mm - 69 W/m² -
1787868411 26.67° C 88% 1015.2 hPa 0 mm - 23 W/m² -
1787867807 26.67° C 87% 1015 hPa 0 mm - 18 W/m² -
1787867203 26.67° C 86% 1015 hPa 0 mm - 79 W/m² -
1787866600 26.67° C 86% 1015.2 hPa 0 mm - 75 W/m² -
1787865999 26.67° C 86% 1015 hPa 0 mm - 98 W/m² -
1787865394 26.67° C 86% 1015.1 hPa 0 mm - 100 W/m² -
1787864791 26.67° C 89% 1015.3 hPa 0 mm - 123 W/m² -
1787864191 26.67° C 89% 1015.3 hPa 0 mm - 70 W/m² -
1787863590 26.67° C 89% 1015.1 hPa 0 mm - 49 W/m² -
1787862987 26.67° C 88% 1015.2 hPa 0 mm - 58 W/m² -
1787862382 27.22° C 88% 1015.2 hPa 0 mm - 73 W/m² -
1787861777 27.22° C 87% 1015.7 hPa 0 mm - 92 W/m² -
1787861177 27.78° C 85% 1016 hPa 0 mm - 113 W/m² -
1787860576 27.78° C 84% 1015.7 hPa 0 mm - 153 W/m² -
1787859972 28.33° C 83% 1015.8 hPa 0 mm - 201 W/m² -
1787859367 28.89° C 82% 1015.6 hPa 0 mm - 210 W/m² -
1787858765 28.33° C 84% 1015.7 hPa 0 mm - 278 W/m² -
1787858160 29.44° C 79% 1015.7 hPa 0 mm - 156 W/m² -
1787857558 28.89° C 81% 1015.8 hPa 0 mm - 738 W/m² -

* Rain latest hour (hover to see other rain measurements)
** Current wind speed in m/s (hover to see current wind gust speed)